sensor_id;sensor_type;location;lat;lon;timestamp;pressure;altitude;pressure_sealevel;temperature;humidity
11395;BME280;5753;54.402;10.220;2023-01-29T00:00:04;102569.19;;;13.90;58.02
11395;BME280;5753;54.402;10.220;2023-01-29T00:02:35;102566.75;;;13.67;58.84
11395;BME280;5753;54.402;10.220;2023-01-29T00:05:01;102561.94;;;14.08;58.04
11395;BME280;5753;54.402;10.220;2023-01-29T00:07:29;102563.63;;;13.23;59.53
11395;BME280;5753;54.402;10.220;2023-01-29T00:09:55;102558.44;;;14.06;58.56
11395;BME280;5753;54.402;10.220;2023-01-29T00:12:21;102566.63;;;11.89;64.83
11395;BME280;5753;54.402;10.220;2023-01-29T00:14:48;102554.03;;;13.46;60.64
11395;BME280;5753;54.402;10.220;2023-01-29T00:17:14;102550.19;;;13.34;59.88
11395;BME280;5753;54.402;10.220;2023-01-29T00:19:40;102552.91;;;13.38;60.20
11395;BME280;5753;54.402;10.220;2023-01-29T00:22:06;102557.53;;;11.35;71.03
11395;BME280;5753;54.402;10.220;2023-01-29T00:24:32;102550.81;;;12.52;65.64
11395;BME280;5753;54.402;10.220;2023-01-29T00:26:59;102562.56;;;11.75;68.53
11395;BME280;5753;54.402;10.220;2023-01-29T00:29:25;102558.00;;;11.68;67.34
11395;BME280;5753;54.402;10.220;2023-01-29T00:31:51;102554.88;;;10.71;74.93
11395;BME280;5753;54.402;10.220;2023-01-29T00:34:17;102549.38;;;11.88;69.68
11395;BME280;5753;54.402;10.220;2023-01-29T00:36:43;102544.59;;;12.23;69.76
11395;BME280;5753;54.402;10.220;2023-01-29T00:39:10;102533.59;;;13.55;62.00
11395;BME280;5753;54.402;10.220;2023-01-29T00:41:37;102527.94;;;14.59;57.32
11395;BME280;5753;54.402;10.220;2023-01-29T00:44:22;102534.09;;;14.31;58.88
11395;BME280;5753;54.402;10.220;2023-01-29T00:47:07;102537.06;;;14.43;57.63
11395;BME280;5753;54.402;10.220;2023-01-29T00:49:53;102543.44;;;13.96;58.46
11395;BME280;5753;54.402;10.220;2023-01-29T00:52:19;102532.81;;;13.86;58.90
11395;BME280;5753;54.402;10.220;2023-01-29T00:54:53;102538.53;;;14.05;58.96
11395;BME280;5753;54.402;10.220;2023-01-29T00:57:19;102534.00;;;13.15;60.93
11395;BME280;5753;54.402;10.220;2023-01-29T00:59:45;102531.38;;;14.58;56.87
11395;BME280;5753;54.402;10.220;2023-01-29T01:02:11;102529.47;;;14.51;56.95
11395;BME280;5753;54.402;10.220;2023-01-29T01:04:56;102537.38;;;13.67;58.95
11395;BME280;5753;54.402;10.220;2023-01-29T01:07:22;102532.53;;;14.37;56.67
11395;BME280;5753;54.402;10.220;2023-01-29T01:09:50;102528.50;;;14.17;57.26
11395;BME280;5753;54.402;10.220;2023-01-29T01:12:34;102534.41;;;13.81;57.79
11395;BME280;5753;54.402;10.220;2023-01-29T01:15:00;102530.88;;;14.39;56.53
11395;BME280;5753;54.402;10.220;2023-01-29T01:17:27;102531.63;;;14.35;56.71
11395;BME280;5753;54.402;10.220;2023-01-29T01:19:53;102528.69;;;14.23;56.84
11395;BME280;5753;54.402;10.220;2023-01-29T01:22:19;102526.47;;;13.21;59.13
11395;BME280;5753;54.402;10.220;2023-01-29T01:24:45;102520.00;;;13.34;58.97
11395;BME280;5753;54.402;10.220;2023-01-29T01:27:12;102511.00;;;12.72;62.03
11395;BME280;5753;54.402;10.220;2023-01-29T01:29:38;102500.94;;;12.80;61.79
11395;BME280;5753;54.402;10.220;2023-01-29T01:32:05;102499.75;;;13.22;59.97
11395;BME280;5753;54.402;10.220;2023-01-29T01:34:31;102485.78;;;12.92;60.25
11395;BME280;5753;54.402;10.220;2023-01-29T01:36:57;102495.84;;;13.64;58.95
11395;BME280;5753;54.402;10.220;2023-01-29T01:39:24;102491.13;;;12.97;59.88
11395;BME280;5753;54.402;10.220;2023-01-29T01:41:51;102493.03;;;12.77;61.60
11395;BME280;5753;54.402;10.220;2023-01-29T01:44:58;102498.59;;;13.70;58.95
11395;BME280;5753;54.402;10.220;2023-01-29T01:47:45;102496.09;;;12.90;62.21
11395;BME280;5753;54.402;10.220;2023-01-29T01:53:01;102507.47;;;13.21;60.21
11395;BME280;5753;54.402;10.220;2023-01-29T01:55:32;102501.41;;;12.20;65.73
11395;BME280;5753;54.402;10.220;2023-01-29T01:58:11;102507.41;;;11.51;68.47
11395;BME280;5753;54.402;10.220;2023-01-29T02:00:38;102508.19;;;10.65;72.46
11395;BME280;5753;54.402;10.220;2023-01-29T02:03:06;102504.13;;;11.34;70.52
11395;BME280;5753;54.402;10.220;2023-01-29T02:05:53;102492.75;;;11.94;67.40
11395;BME280;5753;54.402;10.220;2023-01-29T02:11:34;102472.63;;;11.86;68.26
11395;BME280;5753;54.402;10.220;2023-01-29T02:14:01;102475.78;;;11.13;72.24
11395;BME280;5753;54.402;10.220;2023-01-29T02:16:27;102468.13;;;12.29;66.25
11395;BME280;5753;54.402;10.220;2023-01-29T02:18:53;102468.22;;;11.39;70.36
11395;BME280;5753;54.402;10.220;2023-01-29T02:21:28;102462.16;;;10.53;76.64
11395;BME280;5753;54.402;10.220;2023-01-29T02:29:50;102447.88;;;11.70;73.82
11395;BME280;5753;54.402;10.220;2023-01-29T02:35:22;102435.75;;;11.45;73.91
11395;BME280;5753;54.402;10.220;2023-01-29T02:40:42;102417.00;;;12.21;67.86
11395;BME280;5753;54.402;10.220;2023-01-29T02:43:45;102417.66;;;14.10;60.28
11395;BME280;5753;54.402;10.220;2023-01-29T02:46:36;102407.94;;;14.34;58.65
11395;BME280;5753;54.402;10.220;2023-01-29T02:52:20;102402.34;;;13.86;60.71
11395;BME280;5753;54.402;10.220;2023-01-29T02:55:08;102410.16;;;13.88;59.77
11395;BME280;5753;54.402;10.220;2023-01-29T02:57:40;102402.88;;;12.89;64.57
11395;BME280;5753;54.402;10.220;2023-01-29T03:00:18;102396.03;;;13.46;62.06
11395;BME280;5753;54.402;10.220;2023-01-29T03:03:33;102399.84;;;11.75;67.61
11395;BME280;5753;54.402;10.220;2023-01-29T03:08:14;102407.41;;;11.24;74.57
11395;BME280;5753;54.402;10.220;2023-01-29T03:10:55;102401.78;;;10.90;74.52
11395;BME280;5753;54.402;10.220;2023-01-29T03:13:45;102401.44;;;12.72;66.67
11395;BME280;5753;54.402;10.220;2023-01-29T03:18:49;102411.72;;;11.70;70.10
11395;BME280;5753;54.402;10.220;2023-01-29T03:21:29;102416.00;;;10.59;77.10
11395;BME280;5753;54.402;10.220;2023-01-29T03:24:28;102408.22;;;11.23;75.40
11395;BME280;5753;54.402;10.220;2023-01-29T03:27:17;102404.88;;;11.72;71.75
11395;BME280;5753;54.402;10.220;2023-01-29T03:30:04;102405.19;;;11.11;73.63
11395;BME280;5753;54.402;10.220;2023-01-29T03:32:53;102407.41;;;11.24;72.65
11395;BME280;5753;54.402;10.220;2023-01-29T03:35:24;102407.69;;;10.66;75.23
11395;BME280;5753;54.402;10.220;2023-01-29T03:38:03;102407.13;;;10.73;73.15
11395;BME280;5753;54.402;10.220;2023-01-29T03:49:18;102403.06;;;12.41;66.57
11395;BME280;5753;54.402;10.220;2023-01-29T03:52:03;102393.53;;;13.21;62.05
11395;BME280;5753;54.402;10.220;2023-01-29T04:00:07;102405.38;;;13.71;59.50
11395;BME280;5753;54.402;10.220;2023-01-29T04:05:32;102403.25;;;12.74;61.88
11395;BME280;5753;54.402;10.220;2023-01-29T04:08:10;102409.81;;;13.17;59.69
11395;BME280;5753;54.402;10.220;2023-01-29T04:10:40;102419.94;;;12.57;63.07
11395;BME280;5753;54.402;10.220;2023-01-29T04:13:13;102404.25;;;11.78;64.90
11395;BME280;5753;54.402;10.220;2023-01-29T04:15:49;102407.31;;;10.78;70.57
11395;BME280;5753;54.402;10.220;2023-01-29T04:18:18;102396.44;;;12.49;64.92
11395;BME280;5753;54.402;10.220;2023-01-29T04:20:44;102396.88;;;12.90;63.29
11395;BME280;5753;54.402;10.220;2023-01-29T04:23:25;102397.94;;;12.97;62.40
11395;BME280;5753;54.402;10.220;2023-01-29T04:34:24;102368.94;;;13.35;59.52
11395;BME280;5753;54.402;10.220;2023-01-29T04:39:39;102359.50;;;13.37;59.62
11395;BME280;5753;54.402;10.220;2023-01-29T04:42:19;102369.06;;;13.40;59.62
11395;BME280;5753;54.402;10.220;2023-01-29T04:44:59;102355.16;;;13.36;60.14
11395;BME280;5753;54.402;10.220;2023-01-29T04:47:34;102369.53;;;13.86;58.45
11395;BME280;5753;54.402;10.220;2023-01-29T04:50:20;102378.81;;;13.78;59.21
11395;BME280;5753;54.402;10.220;2023-01-29T04:55:48;102358.88;;;14.09;57.52
11395;BME280;5753;54.402;10.220;2023-01-29T05:00:44;102370.19;;;14.80;55.39
11395;BME280;5753;54.402;10.220;2023-01-29T05:03:15;102357.59;;;14.26;57.12
11395;BME280;5753;54.402;10.220;2023-01-29T05:05:44;102346.69;;;13.72;58.86
11395;BME280;5753;54.402;10.220;2023-01-29T05:08:14;102346.19;;;13.55;58.95
11395;BME280;5753;54.402;10.220;2023-01-29T05:10:42;102362.53;;;13.84;58.46
11395;BME280;5753;54.402;10.220;2023-01-29T05:13:12;102356.38;;;14.13;57.54
11395;BME280;5753;54.402;10.220;2023-01-29T05:15:56;102351.44;;;13.58;59.70
11395;BME280;5753;54.402;10.220;2023-01-29T05:18:25;102369.66;;;11.96;63.85
11395;BME280;5753;54.402;10.220;2023-01-29T05:20:52;102361.63;;;12.67;63.57
11395;BME280;5753;54.402;10.220;2023-01-29T05:23:22;102355.88;;;13.62;60.64
11395;BME280;5753;54.402;10.220;2023-01-29T05:25:49;102361.13;;;11.77;68.49
11395;BME280;5753;54.402;10.220;2023-01-29T05:28:16;102345.91;;;12.87;63.64
11395;BME280;5753;54.402;10.220;2023-01-29T05:30:48;102341.56;;;12.86;63.41
11395;BME280;5753;54.402;10.220;2023-01-29T05:33:19;102329.13;;;13.95;59.99
11395;BME280;5753;54.402;10.220;2023-01-29T05:35:46;102338.34;;;12.67;62.91
11395;BME280;5753;54.402;10.220;2023-01-29T05:38:14;102338.13;;;12.07;65.15
11395;BME280;5753;54.402;10.220;2023-01-29T05:40:41;102327.63;;;13.71;60.94
11395;BME280;5753;54.402;10.220;2023-01-29T05:43:15;102320.56;;;14.66;57.80
11395;BME280;5753;54.402;10.220;2023-01-29T05:45:42;102325.91;;;13.12;63.81
11395;BME280;5753;54.402;10.220;2023-01-29T05:48:08;102313.22;;;13.81;60.11
11395;BME280;5753;54.402;10.220;2023-01-29T05:50:35;102310.75;;;13.54;60.65
11395;BME280;5753;54.402;10.220;2023-01-29T05:53:01;102320.94;;;14.12;58.58
11395;BME280;5753;54.402;10.220;2023-01-29T05:55:28;102298.47;;;13.47;60.11
11395;BME280;5753;54.402;10.220;2023-01-29T05:57:54;102292.50;;;12.89;62.64
11395;BME280;5753;54.402;10.220;2023-01-29T06:00:21;102284.47;;;12.80;63.60
11395;BME280;5753;54.402;10.220;2023-01-29T06:02:47;102285.00;;;14.26;58.79
11395;BME280;5753;54.402;10.220;2023-01-29T06:05:13;102280.34;;;12.87;63.43
11395;BME280;5753;54.402;10.220;2023-01-29T06:07:39;102280.06;;;14.02;59.90
11395;BME280;5753;54.402;10.220;2023-01-29T06:10:14;102280.31;;;14.13;58.86
11395;BME280;5753;54.402;10.220;2023-01-29T06:12:41;102282.84;;;14.10;59.50
11395;BME280;5753;54.402;10.220;2023-01-29T06:15:08;102278.81;;;13.23;61.17
11395;BME280;5753;54.402;10.220;2023-01-29T06:17:35;102284.75;;;14.52;57.94
11395;BME280;5753;54.402;10.220;2023-01-29T06:20:02;102270.94;;;14.18;58.23
11395;BME280;5753;54.402;10.220;2023-01-29T06:22:28;102277.22;;;14.26;57.87
11395;BME280;5753;54.402;10.220;2023-01-29T06:24:55;102272.78;;;14.22;58.46
11395;BME280;5753;54.402;10.220;2023-01-29T06:27:21;102272.63;;;14.91;56.58
11395;BME280;5753;54.402;10.220;2023-01-29T06:29:48;102258.50;;;14.39;57.60
11395;BME280;5753;54.402;10.220;2023-01-29T06:32:14;102267.56;;;14.21;57.76
11395;BME280;5753;54.402;10.220;2023-01-29T06:34:41;102270.34;;;13.28;59.80
11395;BME280;5753;54.402;10.220;2023-01-29T06:37:07;102266.81;;;13.26;60.57
11395;BME280;5753;54.402;10.220;2023-01-29T06:39:33;102257.69;;;12.51;64.88
11395;BME280;5753;54.402;10.220;2023-01-29T06:41:59;102253.94;;;13.60;62.35
11395;BME280;5753;54.402;10.220;2023-01-29T06:44:26;102244.16;;;13.18;62.18
11395;BME280;5753;54.402;10.220;2023-01-29T06:46:52;102243.50;;;13.92;60.50
11395;BME280;5753;54.402;10.220;2023-01-29T06:49:18;102244.03;;;12.55;65.46
11395;BME280;5753;54.402;10.220;2023-01-29T06:51:44;102245.91;;;13.19;62.09
11395;BME280;5753;54.402;10.220;2023-01-29T06:54:10;102226.56;;;14.06;60.11
11395;BME280;5753;54.402;10.220;2023-01-29T06:56:37;102235.44;;;13.46;61.88
11395;BME280;5753;54.402;10.220;2023-01-29T06:59:03;102230.19;;;11.49;69.65
11395;BME280;5753;54.402;10.220;2023-01-29T07:01:30;102230.63;;;12.40;66.24
11395;BME280;5753;54.402;10.220;2023-01-29T07:03:56;102236.97;;;12.23;68.36
11395;BME280;5753;54.402;10.220;2023-01-29T07:06:27;102233.19;;;11.35;74.73
11395;BME280;5753;54.402;10.220;2023-01-29T07:08:53;102238.56;;;10.71;77.76
11395;BME280;5753;54.402;10.220;2023-01-29T07:11:20;102233.81;;;11.54;73.87
11395;BME280;5753;54.402;10.220;2023-01-29T07:13:46;102233.13;;;11.10;74.93
11395;BME280;5753;54.402;10.220;2023-01-29T07:16:12;102236.16;;;10.76;78.90
11395;BME280;5753;54.402;10.220;2023-01-29T07:18:38;102232.84;;;12.01;72.80
11395;BME280;5753;54.402;10.220;2023-01-29T07:21:05;102224.75;;;11.90;75.80
11395;BME280;5753;54.402;10.220;2023-01-29T07:23:33;102222.88;;;12.40;70.09
11395;BME280;5753;54.402;10.220;2023-01-29T07:26:06;102223.91;;;12.45;71.38
11395;BME280;5753;54.402;10.220;2023-01-29T07:28:36;102225.28;;;13.54;65.37
11395;BME280;5753;54.402;10.220;2023-01-29T07:31:03;102242.19;;;10.99;72.13
11395;BME280;5753;54.402;10.220;2023-01-29T07:33:29;102221.53;;;11.47;79.11
11395;BME280;5753;54.402;10.220;2023-01-29T07:35:55;102223.53;;;10.84;79.13
11395;BME280;5753;54.402;10.220;2023-01-29T07:38:22;102222.97;;;11.15;78.35
11395;BME280;5753;54.402;10.220;2023-01-29T07:40:48;102219.00;;;12.83;70.67
11395;BME280;5753;54.402;10.220;2023-01-29T07:43:16;102218.69;;;12.74;69.94
11395;BME280;5753;54.402;10.220;2023-01-29T07:45:42;102223.13;;;13.38;65.82
11395;BME280;5753;54.402;10.220;2023-01-29T07:48:12;102229.47;;;13.49;65.17
11395;BME280;5753;54.402;10.220;2023-01-29T07:50:39;102223.06;;;13.69;64.34
11395;BME280;5753;54.402;10.220;2023-01-29T07:53:06;102222.53;;;13.81;63.06
11395;BME280;5753;54.402;10.220;2023-01-29T07:55:32;102217.56;;;12.94;65.41
11395;BME280;5753;54.402;10.220;2023-01-29T07:58:00;102220.44;;;13.68;63.85
11395;BME280;5753;54.402;10.220;2023-01-29T08:00:27;102230.47;;;12.64;66.13
11395;BME280;5753;54.402;10.220;2023-01-29T08:03:00;102233.81;;;12.05;69.30
11395;BME280;5753;54.402;10.220;2023-01-29T08:05:26;102239.25;;;13.61;64.47
11395;BME280;5753;54.402;10.220;2023-01-29T08:07:53;102238.53;;;12.18;68.34
11395;BME280;5753;54.402;10.220;2023-01-29T08:10:19;102234.88;;;13.25;64.77
11395;BME280;5753;54.402;10.220;2023-01-29T08:12:45;102241.81;;;11.85;69.46
11395;BME280;5753;54.402;10.220;2023-01-29T08:15:11;102224.16;;;12.83;66.76
11395;BME280;5753;54.402;10.220;2023-01-29T08:17:37;102223.94;;;12.77;67.12
11395;BME280;5753;54.402;10.220;2023-01-29T08:20:05;102222.22;;;13.06;66.29
11395;BME280;5753;54.402;10.220;2023-01-29T08:22:32;102213.25;;;13.56;64.69
11395;BME280;5753;54.402;10.220;2023-01-29T08:24:58;102215.66;;;12.58;68.40
11395;BME280;5753;54.402;10.220;2023-01-29T08:27:24;102224.56;;;11.84;72.35
11395;BME280;5753;54.402;10.220;2023-01-29T08:29:51;102219.16;;;12.31;71.83
11395;BME280;5753;54.402;10.220;2023-01-29T08:32:17;102219.06;;;12.86;66.99
11395;BME280;5753;54.402;10.220;2023-01-29T08:34:43;102214.13;;;12.65;67.98
11395;BME280;5753;54.402;10.220;2023-01-29T08:37:09;102204.59;;;13.24;65.09
11395;BME280;5753;54.402;10.220;2023-01-29T08:39:35;102202.28;;;13.03;65.61
11395;BME280;5753;54.402;10.220;2023-01-29T08:42:02;102195.38;;;12.15;68.26
11395;BME280;5753;54.402;10.220;2023-01-29T08:44:29;102204.78;;;11.61;71.73
11395;BME280;5753;54.402;10.220;2023-01-29T08:46:55;102188.78;;;12.25;68.56
11395;BME280;5753;54.402;10.220;2023-01-29T08:49:21;102186.22;;;13.46;64.94
11395;BME280;5753;54.402;10.220;2023-01-29T08:51:47;102179.66;;;13.26;64.34
11395;BME280;5753;54.402;10.220;2023-01-29T08:54:13;102181.34;;;12.94;66.25
11395;BME280;5753;54.402;10.220;2023-01-29T08:56:40;102178.56;;;11.76;69.35
11395;BME280;5753;54.402;10.220;2023-01-29T08:59:06;102184.25;;;12.18;68.51
11395;BME280;5753;54.402;10.220;2023-01-29T09:01:32;102183.97;;;12.09;69.40
11395;BME280;5753;54.402;10.220;2023-01-29T09:03:58;102189.66;;;10.51;78.60
11395;BME280;5753;54.402;10.220;2023-01-29T09:06:24;102176.63;;;12.22;71.11
11395;BME280;5753;54.402;10.220;2023-01-29T09:08:51;102175.75;;;12.22;71.20
11395;BME280;5753;54.402;10.220;2023-01-29T09:11:17;102183.00;;;12.32;66.70
11395;BME280;5753;54.402;10.220;2023-01-29T09:13:43;102164.22;;;10.84;78.06
11395;BME280;5753;54.402;10.220;2023-01-29T09:16:10;102169.59;;;12.17;72.71
11395;BME280;5753;54.402;10.220;2023-01-29T09:18:36;102157.25;;;11.81;75.96
11395;BME280;5753;54.402;10.220;2023-01-29T09:21:02;102159.09;;;13.32;66.05
11395;BME280;5753;54.402;10.220;2023-01-29T09:23:29;102150.84;;;12.52;67.53
11395;BME280;5753;54.402;10.220;2023-01-29T09:25:56;102153.19;;;12.75;67.95
11395;BME280;5753;54.402;10.220;2023-01-29T09:28:22;102149.56;;;12.68;67.62
11395;BME280;5753;54.402;10.220;2023-01-29T09:30:49;102146.94;;;12.37;68.92
11395;BME280;5753;54.402;10.220;2023-01-29T09:33:15;102152.78;;;12.03;69.38
11395;BME280;5753;54.402;10.220;2023-01-29T09:35:42;102156.00;;;12.24;67.14
11395;BME280;5753;54.402;10.220;2023-01-29T09:38:10;102152.25;;;11.60;70.13
11395;BME280;5753;54.402;10.220;2023-01-29T09:43:34;102145.94;;;10.78;75.57
11395;BME280;5753;54.402;10.220;2023-01-29T09:46:32;102142.28;;;12.26;70.01
11395;BME280;5753;54.402;10.220;2023-01-29T09:49:35;102148.81;;;12.42;70.80
11395;BME280;5753;54.402;10.220;2023-01-29T09:52:15;102137.75;;;11.64;70.91
11395;BME280;5753;54.402;10.220;2023-01-29T09:54:54;102136.44;;;10.77;77.61
11395;BME280;5753;54.402;10.220;2023-01-29T09:57:47;102138.31;;;11.04;75.95
11395;BME280;5753;54.402;10.220;2023-01-29T10:00:35;102136.44;;;10.08;85.19
11395;BME280;5753;54.402;10.220;2023-01-29T10:06:20;102119.31;;;11.53;76.35
11395;BME280;5753;54.402;10.220;2023-01-29T10:13:59;102111.03;;;12.47;73.74
11395;BME280;5753;54.402;10.220;2023-01-29T10:25:03;102086.16;;;11.13;76.98
11395;BME280;5753;54.402;10.220;2023-01-29T10:27:38;102072.84;;;11.80;73.61
11395;BME280;5753;54.402;10.220;2023-01-29T10:33:03;102067.50;;;12.31;70.66
11395;BME280;5753;54.402;10.220;2023-01-29T10:35:35;102055.47;;;12.03;70.82
11395;BME280;5753;54.402;10.220;2023-01-29T10:38:36;102086.25;;;11.95;69.72
11395;BME280;5753;54.402;10.220;2023-01-29T10:41:19;102051.00;;;11.97;72.57
11395;BME280;5753;54.402;10.220;2023-01-29T11:00:29;102037.47;;;11.51;71.80
11395;BME280;5753;54.402;10.220;2023-01-29T11:03:14;102026.69;;;11.64;72.88
11395;BME280;5753;54.402;10.220;2023-01-29T11:05:54;102024.84;;;11.87;71.67
11395;BME280;5753;54.402;10.220;2023-01-29T11:08:25;102025.47;;;10.99;75.43
11395;BME280;5753;54.402;10.220;2023-01-29T11:11:34;102015.34;;;11.32;75.59
11395;BME280;5753;54.402;10.220;2023-01-29T11:14:04;102002.06;;;10.67;82.24
11395;BME280;5753;54.402;10.220;2023-01-29T11:16:47;102003.78;;;11.19;75.41
11395;BME280;5753;54.402;10.220;2023-01-29T11:19:14;101997.41;;;10.33;81.82
11395;BME280;5753;54.402;10.220;2023-01-29T11:21:58;101989.13;;;12.34;72.38
11395;BME280;5753;54.402;10.220;2023-01-29T11:24:26;101991.88;;;12.08;72.12
11395;BME280;5753;54.402;10.220;2023-01-29T11:27:22;101981.09;;;12.24;69.61
11395;BME280;5753;54.402;10.220;2023-01-29T11:29:52;101980.44;;;11.16;77.71
11395;BME280;5753;54.402;10.220;2023-01-29T11:37:42;101959.00;;;12.34;69.90
11395;BME280;5753;54.402;10.220;2023-01-29T11:42:45;101953.31;;;12.82;67.69
11395;BME280;5753;54.402;10.220;2023-01-29T11:45:30;101951.94;;;12.96;67.36
11395;BME280;5753;54.402;10.220;2023-01-29T11:47:59;101961.72;;;12.09;70.38
11395;BME280;5753;54.402;10.220;2023-01-29T11:50:28;101947.34;;;11.58;74.49
11395;BME280;5753;54.402;10.220;2023-01-29T11:52:55;101950.44;;;9.70;85.08
11395;BME280;5753;54.402;10.220;2023-01-29T11:55:26;101941.28;;;11.29;77.98
11395;BME280;5753;54.402;10.220;2023-01-29T12:00:32;101931.84;;;11.58;72.79
11395;BME280;5753;54.402;10.220;2023-01-29T12:04:01;101923.91;;;11.24;76.96
11395;BME280;5753;54.402;10.220;2023-01-29T12:06:33;101928.91;;;11.76;71.79
11395;BME280;5753;54.402;10.220;2023-01-29T12:09:02;101922.66;;;11.68;75.14
11395;BME280;5753;54.402;10.220;2023-01-29T12:11:34;101917.06;;;11.53;73.16
11395;BME280;5753;54.402;10.220;2023-01-29T12:14:03;101905.69;;;10.15;83.04
11395;BME280;5753;54.402;10.220;2023-01-29T12:21:59;101905.44;;;9.59;86.06
11395;BME280;5753;54.402;10.220;2023-01-29T12:24:43;101891.94;;;10.14;82.99
11395;BME280;5753;54.402;10.220;2023-01-29T12:27:21;101889.47;;;11.52;76.42
11395;BME280;5753;54.402;10.220;2023-01-29T12:30:12;101882.25;;;12.00;75.02
11395;BME280;5753;54.402;10.220;2023-01-29T12:32:48;101875.81;;;11.56;79.00
11395;BME280;5753;54.402;10.220;2023-01-29T12:40:33;101864.78;;;11.61;74.44
11395;BME280;5753;54.402;10.220;2023-01-29T12:43:11;101874.81;;;12.12;71.07
11395;BME280;5753;54.402;10.220;2023-01-29T12:45:38;101860.03;;;12.07;70.52
11395;BME280;5753;54.402;10.220;2023-01-29T12:48:09;101853.56;;;12.95;64.62
11395;BME280;5753;54.402;10.220;2023-01-29T12:50:38;101845.97;;;10.79;71.69
11395;BME280;5753;54.402;10.220;2023-01-29T12:55:58;101853.00;;;10.56;76.52
11395;BME280;5753;54.402;10.220;2023-01-29T12:58:53;101840.16;;;12.37;69.55
11395;BME280;5753;54.402;10.220;2023-01-29T13:01:33;101843.59;;;10.85;80.59
11395;BME280;5753;54.402;10.220;2023-01-29T13:04:13;101833.41;;;10.35;80.77
11395;BME280;5753;54.402;10.220;2023-01-29T13:06:46;101827.84;;;11.64;73.49
11395;BME280;5753;54.402;10.220;2023-01-29T13:09:22;101832.72;;;9.90;83.24
11395;BME280;5753;54.402;10.220;2023-01-29T13:15:41;101831.81;;;10.14;84.86
11395;BME280;5753;54.402;10.220;2023-01-29T13:17:57;101817.72;;;9.78;83.73
11395;BME280;5753;54.402;10.220;2023-01-29T13:20:33;101806.25;;;10.20;80.63
11395;BME280;5753;54.402;10.220;2023-01-29T13:23:17;101804.47;;;10.43;81.46
11395;BME280;5753;54.402;10.220;2023-01-29T13:25:48;101793.13;;;11.53;76.59
11395;BME280;5753;54.402;10.220;2023-01-29T13:28:24;101799.16;;;10.93;74.14
11395;BME280;5753;54.402;10.220;2023-01-29T13:33:41;101791.47;;;9.39;86.24
11395;BME280;5753;54.402;10.220;2023-01-29T13:36:15;101773.03;;;11.74;74.68
11395;BME280;5753;54.402;10.220;2023-01-29T13:38:44;101785.75;;;9.72;83.66
11395;BME280;5753;54.402;10.220;2023-01-29T13:41:10;101776.81;;;10.65;78.39
11395;BME280;5753;54.402;10.220;2023-01-29T13:43:40;101765.13;;;12.36;71.42
11395;BME280;5753;54.402;10.220;2023-01-29T13:46:10;101766.56;;;11.88;73.02
11395;BME280;5753;54.402;10.220;2023-01-29T13:48:47;101761.81;;;12.79;68.51
11395;BME280;5753;54.402;10.220;2023-01-29T13:51:18;101762.22;;;9.37;85.35
11395;BME280;5753;54.402;10.220;2023-01-29T13:53:54;101747.88;;;11.67;75.85
11395;BME280;5753;54.402;10.220;2023-01-29T13:56:44;101738.94;;;10.91;77.26
11395;BME280;5753;54.402;10.220;2023-01-29T13:59:51;101734.75;;;12.27;71.39
11395;BME280;5753;54.402;10.220;2023-01-29T14:02:38;101740.16;;;11.04;79.91
11395;BME280;5753;54.402;10.220;2023-01-29T14:07:59;101749.44;;;9.90;84.72
11395;BME280;5753;54.402;10.220;2023-01-29T14:10:30;101751.66;;;9.54;86.80
11395;BME280;5753;54.402;10.220;2023-01-29T14:15:38;101742.28;;;10.89;81.19
11395;BME280;5753;54.402;10.220;2023-01-29T14:25:55;101721.59;;;10.57;80.89
11395;BME280;5753;54.402;10.220;2023-01-29T14:28:24;101705.88;;;11.74;73.68
11395;BME280;5753;54.402;10.220;2023-01-29T14:30:52;101717.84;;;10.76;78.22
11395;BME280;5753;54.402;10.220;2023-01-29T14:33:34;101710.75;;;11.30;76.48
11395;BME280;5753;54.402;10.220;2023-01-29T14:36:09;101722.94;;;10.75;78.44
11395;BME280;5753;54.402;10.220;2023-01-29T14:38:37;101706.88;;;9.74;86.29
11395;BME280;5753;54.402;10.220;2023-01-29T14:41:14;101700.13;;;11.18;77.27
11395;BME280;5753;54.402;10.220;2023-01-29T14:43:43;101696.47;;;11.10;75.61
11395;BME280;5753;54.402;10.220;2023-01-29T14:49:01;101697.31;;;11.77;74.66
11395;BME280;5753;54.402;10.220;2023-01-29T14:51:33;101696.63;;;11.16;77.54
11395;BME280;5753;54.402;10.220;2023-01-29T14:54:20;101674.75;;;12.03;74.47
11395;BME280;5753;54.402;10.220;2023-01-29T14:56:57;101678.69;;;11.54;75.75
11395;BME280;5753;54.402;10.220;2023-01-29T14:59:32;101683.31;;;11.01;79.81
11395;BME280;5753;54.402;10.220;2023-01-29T15:02:30;101665.28;;;11.68;74.49
11395;BME280;5753;54.402;10.220;2023-01-29T15:05:04;101688.16;;;10.32;81.21
11395;BME280;5753;54.402;10.220;2023-01-29T15:07:40;101679.22;;;11.09;79.13
11395;BME280;5753;54.402;10.220;2023-01-29T15:13:02;101655.38;;;11.51;79.79
11395;BME280;5753;54.402;10.220;2023-01-29T15:15:50;101652.16;;;11.94;75.20
11395;BME280;5753;54.402;10.220;2023-01-29T15:18:35;101659.38;;;11.07;78.92
11395;BME280;5753;54.402;10.220;2023-01-29T15:21:08;101637.72;;;12.41;71.98
11395;BME280;5753;54.402;10.220;2023-01-29T15:23:37;101636.88;;;12.42;72.03
11395;BME280;5753;54.402;10.220;2023-01-29T15:26:11;101624.44;;;12.67;70.26
11395;BME280;5753;54.402;10.220;2023-01-29T15:28:40;101627.19;;;10.32;83.28
11395;BME280;5753;54.402;10.220;2023-01-29T15:31:12;101621.84;;;10.26;84.29
11395;BME280;5753;54.402;10.220;2023-01-29T15:33:41;101611.56;;;11.54;77.06
11395;BME280;5753;54.402;10.220;2023-01-29T15:36:22;101609.00;;;12.29;73.77
11395;BME280;5753;54.402;10.220;2023-01-29T15:39:13;101607.25;;;11.20;80.64
11395;BME280;5753;54.402;10.220;2023-01-29T15:41:40;101598.59;;;11.51;77.99
11395;BME280;5753;54.402;10.220;2023-01-29T15:44:17;101611.25;;;11.07;79.19